Route Details

Aircraft Information
Group: Narrowbodies
Types: B738, B752
Route Data
Distance: 59nm
Duration: 0h 50m
Origin METAR: TIST 171053Z 00000KT 10SM CLR 29/25 A2998 RMK AO2 SLP152 T02890250 $
Dest. METAR: TJSJ 171056Z 00000KT 10SM FEW025 27/24 A3000 RMK AO2 SLP156 T02670244
Freight Data
(for Aug 18, 2022)
Load Factor:
57%
Manifested Cargo: 37,588lbs
Financial History
Total Freight: 0lbs
Average Load: 0lbs/flt
Fuel Used: 0lbs
Avg. Fuel Used: 0lbs/flt
Fuel Expense: $0
Avg. Fuel Expense: $0
Avg. Fuel Cost: $0/lbs
Total Gross Income: $0
Pilot Pay: $0
Total Expenses: $0
Total Revenue: $0
Average Revenue: $0

Capitol Logistics 327




TIST
Cyril E King Airport
Charlotte Amalie, VI
TJSJ
Luis Munoz Marin International Airport
San Juan, PR

Activity Log

Date Flight Route Aircraft Duration
No Flights Yet